createdAt,value
2023-04-21T00:00:31.577Z,97228.03
2023-04-21T00:03:03.524Z,97224.03
2023-04-21T00:05:33.389Z,97228.00
2023-04-21T00:08:09.143Z,97222.19
2023-04-21T00:10:37.439Z,97217.19
2023-04-21T00:13:05.720Z,97215.72
2023-04-21T00:15:34.017Z,97202.78
2023-04-21T00:18:07.787Z,97207.72
2023-04-21T00:20:36.722Z,97207.03
2023-04-21T00:23:05.034Z,97202.34
2023-04-21T00:25:33.333Z,97199.91
2023-04-21T00:28:01.568Z,97211.47
2023-04-21T00:30:29.921Z,97204.00
2023-04-21T00:32:58.252Z,97204.31
2023-04-21T00:35:28.224Z,97217.06
2023-04-21T00:37:56.522Z,97215.69
2023-04-21T00:40:24.870Z,97212.88
2023-04-21T00:42:53.152Z,97216.47
2023-04-21T00:45:21.481Z,97210.84
2023-04-21T00:47:49.870Z,97214.75
2023-04-21T00:50:18.213Z,97215.06
2023-04-21T00:52:49.082Z,97216.22
2023-04-21T00:55:17.959Z,97224.50
2023-04-21T00:57:46.596Z,97218.84
2023-04-21T01:00:17.367Z,97220.28
2023-04-21T01:02:46.505Z,97226.84
2023-04-21T01:05:18.236Z,97227.31
2023-04-21T01:07:48.040Z,97231.25
2023-04-21T01:10:16.520Z,97223.78
2023-04-21T01:12:46.284Z,97235.19
2023-04-21T01:15:16.342Z,97226.03
2023-04-21T01:17:45.462Z,97225.19
2023-04-21T01:20:16.238Z,97221.06
2023-04-21T01:22:51.763Z,97217.72
2023-04-21T01:25:22.805Z,97206.09
2023-04-21T01:27:51.944Z,97214.56
2023-04-21T01:30:20.261Z,97209.41
2023-04-21T01:32:48.629Z,97208.72
2023-04-21T01:35:17.183Z,97212.53
2023-04-21T01:37:45.482Z,97203.91
2023-04-21T01:40:15.390Z,97213.66
2023-04-21T01:42:44.500Z,97215.63
2023-04-21T01:45:13.540Z,97201.72
2023-04-21T01:47:41.959Z,97203.53
2023-04-21T01:50:11.030Z,97206.50
2023-04-21T01:52:39.364Z,97197.03
2023-04-21T01:55:08.652Z,97205.97
2023-04-21T01:57:38.573Z,97209.75
2023-04-21T02:00:11.810Z,97217.69
2023-04-21T02:02:40.398Z,97219.66
2023-04-21T02:05:09.649Z,97218.81
2023-04-21T02:07:37.967Z,97214.50
2023-04-21T02:10:07.172Z,97218.81
2023-04-21T02:12:39.993Z,97210.06
2023-04-21T02:15:10.043Z,97211.00
2023-04-21T02:17:39.183Z,97211.16
2023-04-21T02:20:10.558Z,97213.97
2023-04-21T02:22:40.677Z,97208.97
2023-04-21T02:25:12.914Z,97210.81
2023-04-21T02:27:42.759Z,97206.63
2023-04-21T02:30:11.994Z,97212.06
2023-04-21T02:32:40.559Z,97205.28
2023-04-21T02:35:09.960Z,97211.72
2023-04-21T02:37:38.228Z,97213.66
2023-04-21T02:40:08.287Z,97209.81
2023-04-21T02:42:36.769Z,97211.78
2023-04-21T02:45:14.367Z,97220.16
2023-04-21T02:47:42.739Z,97218.34
2023-04-21T02:50:14.658Z,97212.38
2023-04-21T02:52:42.998Z,97213.50
2023-04-21T02:55:11.662Z,97221.44
2023-04-21T02:57:40.000Z,97221.75
2023-04-21T03:00:12.505Z,97234.97
2023-04-21T03:02:41.189Z,97237.75
2023-04-21T03:05:10.252Z,97224.97
2023-04-21T03:07:38.729Z,97234.56
2023-04-21T03:10:08.295Z,97237.50
2023-04-21T03:12:44.754Z,97235.00
2023-04-21T03:15:15.135Z,97231.00
2023-04-21T03:17:43.763Z,97233.09
2023-04-21T03:20:12.918Z,97227.31
2023-04-21T03:22:41.281Z,97230.09
2023-04-21T03:25:10.306Z,97235.69
2023-04-21T03:27:38.828Z,97243.75
2023-04-21T03:30:08.995Z,97242.22
2023-04-21T03:32:38.814Z,97231.28
2023-04-21T03:35:07.739Z,97239.19
2023-04-21T03:37:36.108Z,97231.56
2023-04-21T03:40:07.243Z,97246.56
2023-04-21T03:42:38.684Z,97239.94
2023-04-21T03:45:09.543Z,97241.06
2023-04-21T03:47:39.295Z,97239.63
2023-04-21T03:50:09.092Z,97233.69
2023-04-21T03:52:40.400Z,97238.28
2023-04-21T03:55:11.679Z,97242.84
2023-04-21T03:57:41.954Z,97247.47
2023-04-21T04:00:12.133Z,97251.06
2023-04-21T04:02:44.263Z,97242.47
2023-04-21T04:05:12.807Z,97248.88
2023-04-21T04:07:41.197Z,97250.84
2023-04-21T04:10:09.768Z,97243.06
2023-04-21T04:12:38.060Z,97245.84
2023-04-21T04:15:08.450Z,97249.44
2023-04-21T04:17:39.075Z,97244.31
2023-04-21T04:20:10.486Z,97243.63
2023-04-21T04:22:38.920Z,97238.66
2023-04-21T04:25:07.781Z,97239.44
2023-04-21T04:27:37.001Z,97250.16
2023-04-21T04:30:07.099Z,97241.56
2023-04-21T04:32:35.613Z,97242.53
2023-04-21T04:35:04.100Z,97244.50
2023-04-21T04:37:35.240Z,97251.72
2023-04-21T04:40:12.211Z,97251.72
2023-04-21T04:42:43.937Z,97251.72
2023-04-21T04:45:13.975Z,97250.06
2023-04-21T04:47:42.556Z,97254.50
2023-04-21T04:50:11.310Z,97257.84
2023-04-21T04:52:49.748Z,97258.00
2023-04-21T04:55:18.916Z,97247.28
2023-04-21T04:57:47.230Z,97260.34
2023-04-21T05:00:16.222Z,97249.78
2023-04-21T05:02:44.677Z,97252.28
2023-04-21T05:05:13.415Z,97256.56
2023-04-21T05:07:43.357Z,97260.06
2023-04-21T05:10:11.852Z,97255.44
2023-04-21T05:12:40.186Z,97249.34
2023-04-21T05:15:10.236Z,97245.72
2023-04-21T05:17:40.645Z,97259.63
2023-04-21T05:20:10.925Z,97256.69
2023-04-21T05:22:39.641Z,97253.91
2023-04-21T05:25:11.806Z,97256.28
2023-04-21T05:27:40.179Z,97255.97
2023-04-21T05:30:09.912Z,97253.06
2023-04-21T05:32:38.293Z,97246.63
2023-04-21T05:35:08.008Z,97253.44
2023-04-21T05:37:36.661Z,97249.53
2023-04-21T05:40:05.481Z,97249.25
2023-04-21T05:42:37.836Z,97259.56
2023-04-21T05:45:07.820Z,97248.53
2023-04-21T05:47:37.351Z,97253.53
2023-04-21T05:50:06.548Z,97246.84
2023-04-21T05:52:35.041Z,97249.19
2023-04-21T05:55:03.399Z,97250.25
2023-04-21T05:57:31.868Z,97245.38
2023-04-21T06:00:05.629Z,97238.66
2023-04-21T06:02:34.107Z,97243.34
2023-04-21T06:05:02.576Z,97245.25
2023-04-21T06:07:31.281Z,97238.53
2023-04-21T06:09:59.638Z,97243.22
2023-04-21T06:12:27.929Z,97242.16
2023-04-21T06:14:57.642Z,97244.06
2023-04-21T06:17:27.404Z,97243.16
2023-04-21T06:19:56.170Z,97235.47
2023-04-21T06:22:24.592Z,97240.50
2023-04-21T06:24:53.042Z,97237.09
2023-04-21T06:27:21.345Z,97241.16
2023-04-21T06:29:49.743Z,97239.94
2023-04-21T06:32:18.082Z,97240.53
2023-04-21T06:34:47.857Z,97239.44
2023-04-21T06:37:16.609Z,97234.56
2023-04-21T06:39:45.104Z,97230.16
2023-04-21T06:42:13.586Z,97223.56
2023-04-21T06:44:41.920Z,97221.34
2023-04-21T06:47:10.366Z,97222.72
2023-04-21T06:49:38.827Z,97217.25
2023-04-21T06:52:08.728Z,97217.78
2023-04-21T06:54:37.078Z,97212.50
2023-04-21T06:57:05.806Z,97220.03
2023-04-21T06:59:34.909Z,97210.28
2023-04-21T07:02:03.406Z,97211.94
2023-04-21T07:04:32.326Z,97214.44
2023-04-21T07:07:03.928Z,97216.94
2023-04-21T07:09:34.062Z,97215.78
2023-04-21T07:12:02.818Z,97215.94
2023-04-21T07:14:31.226Z,97224.06
2023-04-21T07:16:59.679Z,97213.63
2023-04-21T07:19:31.281Z,97216.91
2023-04-21T07:21:59.773Z,97217.06
2023-04-21T07:24:28.143Z,97219.56
2023-04-21T07:26:57.980Z,97219.53
2023-04-21T07:29:26.466Z,97221.50
2023-04-21T07:31:55.391Z,97213.34
2023-04-21T07:34:23.803Z,97209.78
2023-04-21T07:36:56.699Z,97207.22
2023-04-21T07:39:25.130Z,97212.81
2023-04-21T07:41:53.986Z,97214.03
2023-04-21T07:44:23.796Z,97210.13
2023-04-21T07:46:52.098Z,97215.38
2023-04-21T07:49:21.670Z,97220.75
2023-04-21T07:51:52.676Z,97205.91
2023-04-21T07:54:20.986Z,97209.94
2023-04-21T07:56:49.279Z,97204.44
2023-04-21T07:59:17.767Z,97207.84
2023-04-21T08:01:47.544Z,97201.09
2023-04-21T08:04:16.339Z,97195.47
2023-04-21T08:06:45.238Z,97201.19
2023-04-21T08:09:13.922Z,97206.25
2023-04-21T08:11:42.206Z,97212.41
2023-04-21T08:14:11.873Z,97203.53
2023-04-21T08:16:42.323Z,97201.66
2023-04-21T08:19:12.188Z,97201.56
2023-04-21T08:21:44.354Z,97200.47
2023-04-21T08:24:12.651Z,97193.84
2023-04-21T08:26:41.062Z,97202.63
2023-04-21T08:29:10.774Z,97197.00
2023-04-21T08:31:44.449Z,97193.06
2023-04-21T08:34:14.176Z,97188.44
2023-04-21T08:36:42.842Z,97195.19
2023-04-21T08:39:11.337Z,97198.38
2023-04-21T08:41:41.855Z,97188.56
2023-04-21T08:44:11.582Z,97189.13
2023-04-21T08:46:49.409Z,97190.63
2023-04-21T19:44:08.763Z,97040.25
2023-04-21T19:46:37.349Z,97046.66
2023-04-21T19:49:05.871Z,97058.44
2023-04-21T19:51:34.203Z,97045.81
2023-04-21T19:54:10.579Z,97045.22
2023-04-21T19:56:40.399Z,97059.66
2023-04-21T19:59:10.108Z,97052.66
2023-04-21T20:01:38.594Z,97050.38
2023-04-21T20:04:07.286Z,97057.84
2023-04-21T20:06:36.793Z,97058.22
2023-04-21T20:09:05.981Z,97062.31
2023-04-21T20:11:34.803Z,97064.63
2023-04-21T20:14:03.239Z,97055.31
2023-04-21T20:16:33.088Z,97064.81
2023-04-21T20:19:01.415Z,97073.28
2023-04-21T20:21:29.925Z,97070.38
2023-04-21T20:23:58.209Z,97065.63
2023-04-21T20:26:26.644Z,97080.69
2023-04-21T20:28:55.018Z,97079.69
2023-04-21T20:31:25.540Z,97084.00
2023-04-21T20:33:55.457Z,97085.63
2023-04-21T20:36:23.759Z,97086.25
2023-04-21T20:38:52.350Z,97092.41
2023-04-21T20:41:23.262Z,97090.56
2023-04-21T20:43:52.022Z,97088.88
2023-04-21T20:46:20.541Z,97096.53
2023-04-21T20:48:48.877Z,97091.94
2023-04-21T20:51:18.649Z,97089.22
2023-04-21T20:53:46.965Z,97095.59
2023-04-21T20:56:15.575Z,97101.97
2023-04-21T20:58:43.966Z,97100.28
2023-04-21T21:01:13.471Z,97098.41
2023-04-21T21:03:42.076Z,97100.44
2023-04-21T21:06:10.935Z,97100.44
2023-04-21T21:08:41.326Z,97096.88
2023-04-21T21:11:09.687Z,97107.75
2023-04-21T21:13:38.020Z,97109.16
2023-04-21T21:16:07.526Z,97110.13
2023-04-21T21:18:36.098Z,97107.59
2023-04-21T21:21:06.667Z,97104.69
2023-04-21T21:23:35.039Z,97110.81
2023-04-21T21:26:04.909Z,97114.47
2023-04-21T21:28:33.229Z,97118.75
2023-04-21T21:31:01.632Z,97110.69
2023-04-21T21:33:29.985Z,97113.50
2023-04-21T21:35:58.340Z,97115.09
2023-04-21T21:38:26.795Z,97117.75
2023-04-21T21:40:55.224Z,97120.53
2023-04-21T21:43:25.094Z,97116.34
2023-04-21T21:45:54.482Z,97114.44
2023-04-21T21:48:23.056Z,97121.56
2023-04-21T21:50:51.501Z,97126.66
2023-04-21T21:53:19.856Z,97116.69
2023-04-21T21:55:48.278Z,97114.59
2023-04-21T21:58:16.864Z,97109.22
2023-04-21T22:00:51.704Z,97116.94
2023-04-21T22:03:20.361Z,97110.53
2023-04-21T22:05:48.926Z,97113.97
2023-04-21T22:08:17.309Z,97114.53
2023-04-21T22:10:46.220Z,97110.97
2023-04-21T22:13:14.641Z,97108.00
2023-04-21T22:15:43.119Z,97112.28
2023-04-21T22:18:12.999Z,97114.84
2023-04-21T22:20:41.603Z,97107.78
2023-04-21T22:23:10.276Z,97111.19
2023-04-21T22:25:38.704Z,97105.78
2023-04-21T22:28:07.136Z,97101.38
2023-04-21T22:30:35.572Z,97097.75
2023-04-21T22:33:04.125Z,97106.31
2023-04-21T22:35:34.053Z,97109.72
2023-04-21T22:38:02.450Z,97104.13
2023-04-21T22:40:30.967Z,97112.66
2023-04-21T22:42:59.827Z,97110.38
2023-04-21T22:45:28.453Z,97113.41
2023-04-21T22:47:56.993Z,97113.78
2023-04-21T22:50:25.693Z,97113.31
2023-04-21T22:52:55.478Z,97117.16
2023-04-21T22:55:25.573Z,97117.53
2023-04-21T22:57:54.025Z,97118.75
2023-04-21T23:00:22.503Z,97111.91
2023-04-21T23:02:51.250Z,97115.78
2023-04-21T23:05:19.991Z,97107.31
2023-04-21T23:07:48.434Z,97111.16
2023-04-21T23:10:18.445Z,97113.38
2023-04-21T23:12:46.870Z,97116.38
2023-04-21T23:15:15.753Z,97113.09
2023-04-21T23:17:45.421Z,97114.66
2023-04-21T23:20:14.293Z,97120.34
2023-04-21T23:22:43.142Z,97115.75
2023-04-21T23:25:12.062Z,97125.09
2023-04-21T23:27:41.951Z,97124.63
2023-04-21T23:30:11.971Z,97121.66
2023-04-21T23:32:40.463Z,97128.38
2023-04-21T23:35:10.599Z,97125.22
2023-04-21T23:37:39.152Z,97127.56
2023-04-21T23:40:11.314Z,97126.09
2023-04-21T23:42:41.490Z,97121.28
2023-04-21T23:45:15.708Z,97117.34
2023-04-21T23:47:45.553Z,97123.19
2023-04-21T23:50:14.264Z,97123.06
2023-04-21T23:52:44.168Z,97127.59
2023-04-21T23:55:13.063Z,97122.78
2023-04-21T23:57:44.591Z,97127.63
